sensor_id;sensor_type;location;lat;lon;timestamp;P1;durP1;ratioP1;P2;durP2;ratioP2
13311;SDS011;34033;48.672;9.376;2023-06-14T00:01:13;2.77;;;2.57;;
13311;SDS011;34033;48.672;9.376;2023-06-14T00:03:39;3.53;;;2.63;;
13311;SDS011;34033;48.672;9.376;2023-06-14T00:06:04;3.80;;;2.80;;
13311;SDS011;34033;48.672;9.376;2023-06-14T00:08:29;3.47;;;2.80;;
13311;SDS011;34033;48.672;9.376;2023-06-14T00:10:55;2.83;;;2.63;;
13311;SDS011;34033;48.672;9.376;2023-06-14T00:13:20;4.27;;;2.83;;
13311;SDS011;34033;48.672;9.376;2023-06-14T00:15:46;2.97;;;2.77;;
13311;SDS011;34033;48.672;9.376;2023-06-14T00:18:12;4.20;;;2.80;;
13311;SDS011;34033;48.672;9.376;2023-06-14T00:20:38;3.67;;;2.77;;
13311;SDS011;34033;48.672;9.376;2023-06-14T00:23:04;2.90;;;2.60;;
13311;SDS011;34033;48.672;9.376;2023-06-14T00:25:30;2.80;;;2.60;;
13311;SDS011;34033;48.672;9.376;2023-06-14T00:27:55;4.43;;;2.60;;
13311;SDS011;34033;48.672;9.376;2023-06-14T00:30:21;3.30;;;2.93;;
13311;SDS011;34033;48.672;9.376;2023-06-14T00:32:47;7.63;;;3.17;;
13311;SDS011;34033;48.672;9.376;2023-06-14T00:35:13;4.17;;;2.87;;
13311;SDS011;34033;48.672;9.376;2023-06-14T00:37:39;3.33;;;2.97;;
13311;SDS011;34033;48.672;9.376;2023-06-14T00:40:05;4.90;;;2.73;;
13311;SDS011;34033;48.672;9.376;2023-06-14T00:42:31;3.00;;;2.80;;
13311;SDS011;34033;48.672;9.376;2023-06-14T00:44:57;3.20;;;2.97;;
13311;SDS011;34033;48.672;9.376;2023-06-14T00:47:22;3.27;;;2.83;;
13311;SDS011;34033;48.672;9.376;2023-06-14T00:49:49;3.77;;;2.90;;
13311;SDS011;34033;48.672;9.376;2023-06-14T00:52:16;3.90;;;2.73;;
13311;SDS011;34033;48.672;9.376;2023-06-14T00:54:42;6.87;;;3.10;;
13311;SDS011;34033;48.672;9.376;2023-06-14T00:57:08;3.00;;;2.63;;
13311;SDS011;34033;48.672;9.376;2023-06-14T00:59:36;3.07;;;2.77;;
13311;SDS011;34033;48.672;9.376;2023-06-14T01:02:07;3.00;;;2.80;;
13311;SDS011;34033;48.672;9.376;2023-06-14T01:04:32;3.00;;;2.70;;
13311;SDS011;34033;48.672;9.376;2023-06-14T01:14:59;3.27;;;2.97;;
13311;SDS011;34033;48.672;9.376;2023-06-14T01:17:26;3.23;;;2.80;;
13311;SDS011;34033;48.672;9.376;2023-06-14T01:19:52;2.93;;;2.67;;
13311;SDS011;34033;48.672;9.376;2023-06-14T01:22:23;3.20;;;2.90;;
13311;SDS011;34033;48.672;9.376;2023-06-14T01:24:50;4.23;;;3.03;;
13311;SDS011;34033;48.672;9.376;2023-06-14T01:27:20;3.93;;;2.90;;
13311;SDS011;34033;48.672;9.376;2023-06-14T01:29:50;3.27;;;2.97;;
13311;SDS011;34033;48.672;9.376;2023-06-14T01:32:21;7.17;;;3.17;;
13311;SDS011;34033;48.672;9.376;2023-06-14T01:34:48;3.40;;;3.10;;
13311;SDS011;34033;48.672;9.376;2023-06-14T01:37:13;2.83;;;2.63;;
13311;SDS011;34033;48.672;9.376;2023-06-14T01:39:39;3.33;;;3.00;;
13311;SDS011;34033;48.672;9.376;2023-06-14T01:42:07;4.10;;;3.13;;
13311;SDS011;34033;48.672;9.376;2023-06-14T01:44:33;3.67;;;2.90;;
13311;SDS011;34033;48.672;9.376;2023-06-14T01:46:58;3.10;;;2.80;;
13311;SDS011;34033;48.672;9.376;2023-06-14T01:49:23;6.07;;;2.80;;
13311;SDS011;34033;48.672;9.376;2023-06-14T01:51:49;4.00;;;3.00;;
13311;SDS011;34033;48.672;9.376;2023-06-14T01:54:14;3.43;;;3.13;;
13311;SDS011;34033;48.672;9.376;2023-06-14T01:56:39;3.03;;;2.57;;
13311;SDS011;34033;48.672;9.376;2023-06-14T01:59:05;3.37;;;3.07;;
13311;SDS011;34033;48.672;9.376;2023-06-14T02:01:30;3.90;;;3.60;;
13311;SDS011;34033;48.672;9.376;2023-06-14T02:03:56;3.57;;;3.27;;
13311;SDS011;34033;48.672;9.376;2023-06-14T02:06:21;3.30;;;3.00;;
13311;SDS011;34033;48.672;9.376;2023-06-14T02:08:46;5.67;;;3.40;;
13311;SDS011;34033;48.672;9.376;2023-06-14T02:11:12;3.90;;;3.27;;
13311;SDS011;34033;48.672;9.376;2023-06-14T02:13:37;3.23;;;3.00;;
13311;SDS011;34033;48.672;9.376;2023-06-14T02:16:02;3.63;;;3.30;;
13311;SDS011;34033;48.672;9.376;2023-06-14T02:18:28;3.10;;;2.90;;
13311;SDS011;34033;48.672;9.376;2023-06-14T02:20:54;3.30;;;3.00;;
13311;SDS011;34033;48.672;9.376;2023-06-14T02:23:20;3.40;;;2.90;;
13311;SDS011;34033;48.672;9.376;2023-06-14T02:25:45;4.60;;;2.90;;
13311;SDS011;34033;48.672;9.376;2023-06-14T02:28:11;3.50;;;3.20;;
13311;SDS011;34033;48.672;9.376;2023-06-14T02:30:36;3.10;;;2.80;;
13311;SDS011;34033;48.672;9.376;2023-06-14T02:33:02;4.37;;;2.80;;
13311;SDS011;34033;48.672;9.376;2023-06-14T02:35:28;3.00;;;2.70;;
13311;SDS011;34033;48.672;9.376;2023-06-14T02:37:53;4.07;;;2.60;;
13311;SDS011;34033;48.672;9.376;2023-06-14T02:40:19;3.60;;;2.60;;
13311;SDS011;34033;48.672;9.376;2023-06-14T02:42:45;5.43;;;3.40;;
13311;SDS011;34033;48.672;9.376;2023-06-14T02:45:11;3.20;;;3.00;;
13311;SDS011;34033;48.672;9.376;2023-06-14T02:47:36;4.70;;;2.93;;
13311;SDS011;34033;48.672;9.376;2023-06-14T02:50:01;3.13;;;2.83;;
13311;SDS011;34033;48.672;9.376;2023-06-14T02:52:27;4.40;;;2.83;;
13311;SDS011;34033;48.672;9.376;2023-06-14T02:54:53;3.17;;;2.87;;
13311;SDS011;34033;48.672;9.376;2023-06-14T02:57:19;5.13;;;2.90;;
13311;SDS011;34033;48.672;9.376;2023-06-14T02:59:45;4.50;;;3.80;;
13311;SDS011;34033;48.672;9.376;2023-06-14T03:02:10;6.17;;;3.30;;
13311;SDS011;34033;48.672;9.376;2023-06-14T03:04:36;3.53;;;2.83;;
13311;SDS011;34033;48.672;9.376;2023-06-14T03:07:02;4.40;;;3.03;;
13311;SDS011;34033;48.672;9.376;2023-06-14T03:09:37;3.17;;;2.90;;
13311;SDS011;34033;48.672;9.376;2023-06-14T03:12:03;4.70;;;2.90;;
13311;SDS011;34033;48.672;9.376;2023-06-14T03:14:29;4.50;;;2.80;;
13311;SDS011;34033;48.672;9.376;2023-06-14T03:16:55;5.40;;;3.10;;
13311;SDS011;34033;48.672;9.376;2023-06-14T03:19:22;3.03;;;2.73;;
13311;SDS011;34033;48.672;9.376;2023-06-14T03:21:47;4.57;;;3.13;;
13311;SDS011;34033;48.672;9.376;2023-06-14T03:24:14;3.23;;;2.80;;
13311;SDS011;34033;48.672;9.376;2023-06-14T03:26:41;3.30;;;3.00;;
13311;SDS011;34033;48.672;9.376;2023-06-14T03:29:07;3.43;;;2.90;;
13311;SDS011;34033;48.672;9.376;2023-06-14T03:31:34;3.27;;;2.97;;
13311;SDS011;34033;48.672;9.376;2023-06-14T03:34:00;4.87;;;3.20;;
13311;SDS011;34033;48.672;9.376;2023-06-14T03:36:26;2.90;;;2.70;;
13311;SDS011;34033;48.672;9.376;2023-06-14T03:38:52;3.40;;;3.10;;
13311;SDS011;34033;48.672;9.376;2023-06-14T03:41:21;3.23;;;2.93;;
13311;SDS011;34033;48.672;9.376;2023-06-14T03:43:47;2.87;;;2.60;;
13311;SDS011;34033;48.672;9.376;2023-06-14T03:46:12;6.70;;;3.20;;
13311;SDS011;34033;48.672;9.376;2023-06-14T03:48:38;5.60;;;3.20;;
13311;SDS011;34033;48.672;9.376;2023-06-14T03:51:03;3.60;;;3.07;;
13311;SDS011;34033;48.672;9.376;2023-06-14T03:53:29;9.07;;;3.30;;
13311;SDS011;34033;48.672;9.376;2023-06-14T03:55:55;7.43;;;3.77;;
13311;SDS011;34033;48.672;9.376;2023-06-14T03:58:22;5.50;;;3.80;;
13311;SDS011;34033;48.672;9.376;2023-06-14T04:00:47;11.53;;;3.60;;
13311;SDS011;34033;48.672;9.376;2023-06-14T04:03:13;6.20;;;2.87;;
13311;SDS011;34033;48.672;9.376;2023-06-14T04:05:38;5.60;;;3.30;;
13311;SDS011;34033;48.672;9.376;2023-06-14T04:08:07;4.47;;;3.37;;
13311;SDS011;34033;48.672;9.376;2023-06-14T04:10:34;6.63;;;3.60;;
13311;SDS011;34033;48.672;9.376;2023-06-14T04:12:59;5.30;;;3.60;;
13311;SDS011;34033;48.672;9.376;2023-06-14T04:15:24;4.63;;;3.50;;
13311;SDS011;34033;48.672;9.376;2023-06-14T04:17:50;3.40;;;3.10;;
13311;SDS011;34033;48.672;9.376;2023-06-14T04:20:16;2.83;;;2.63;;
13311;SDS011;34033;48.672;9.376;2023-06-14T04:22:42;4.83;;;2.90;;
13311;SDS011;34033;48.672;9.376;2023-06-14T04:25:08;3.20;;;2.90;;
13311;SDS011;34033;48.672;9.376;2023-06-14T04:27:33;16.57;;;3.30;;
13311;SDS011;34033;48.672;9.376;2023-06-14T04:30:01;27.10;;;4.60;;
13311;SDS011;34033;48.672;9.376;2023-06-14T04:32:28;6.93;;;3.40;;
13311;SDS011;34033;48.672;9.376;2023-06-14T04:35:05;7.10;;;3.33;;
13311;SDS011;34033;48.672;9.376;2023-06-14T04:37:34;3.57;;;3.00;;
13311;SDS011;34033;48.672;9.376;2023-06-14T04:39:59;4.03;;;3.20;;
13311;SDS011;34033;48.672;9.376;2023-06-14T04:42:31;4.70;;;3.13;;
13311;SDS011;34033;48.672;9.376;2023-06-14T04:44:57;6.33;;;2.90;;
13311;SDS011;34033;48.672;9.376;2023-06-14T04:47:23;2.93;;;2.73;;
13311;SDS011;34033;48.672;9.376;2023-06-14T04:49:55;5.30;;;3.30;;
13311;SDS011;34033;48.672;9.376;2023-06-14T04:52:22;3.40;;;3.10;;
13311;SDS011;34033;48.672;9.376;2023-06-14T04:54:48;3.40;;;3.10;;
13311;SDS011;34033;48.672;9.376;2023-06-14T04:57:13;3.10;;;2.80;;
13311;SDS011;34033;48.672;9.376;2023-06-14T04:59:42;3.20;;;2.87;;
13311;SDS011;34033;48.672;9.376;2023-06-14T05:02:09;4.20;;;3.70;;
13311;SDS011;34033;48.672;9.376;2023-06-14T05:04:35;5.77;;;3.50;;
13311;SDS011;34033;48.672;9.376;2023-06-14T05:07:04;5.23;;;3.53;;
13311;SDS011;34033;48.672;9.376;2023-06-14T05:09:34;3.50;;;3.20;;
13311;SDS011;34033;48.672;9.376;2023-06-14T05:11:59;3.40;;;3.10;;
13311;SDS011;34033;48.672;9.376;2023-06-14T05:14:25;6.60;;;3.10;;
13311;SDS011;34033;48.672;9.376;2023-06-14T05:16:50;3.83;;;3.27;;
13311;SDS011;34033;48.672;9.376;2023-06-14T05:19:16;3.43;;;3.13;;
13311;SDS011;34033;48.672;9.376;2023-06-14T05:21:43;5.10;;;3.43;;
13311;SDS011;34033;48.672;9.376;2023-06-14T05:24:08;12.30;;;4.00;;
13311;SDS011;34033;48.672;9.376;2023-06-14T05:26:34;5.30;;;4.17;;
13311;SDS011;34033;48.672;9.376;2023-06-14T05:29:00;7.63;;;3.73;;
13311;SDS011;34033;48.672;9.376;2023-06-14T05:31:26;6.47;;;3.73;;
13311;SDS011;34033;48.672;9.376;2023-06-14T05:33:53;3.90;;;3.50;;
13311;SDS011;34033;48.672;9.376;2023-06-14T05:36:19;4.87;;;3.67;;
13311;SDS011;34033;48.672;9.376;2023-06-14T05:38:46;4.60;;;3.47;;
13311;SDS011;34033;48.672;9.376;2023-06-14T05:41:11;4.43;;;3.20;;
13311;SDS011;34033;48.672;9.376;2023-06-14T05:43:37;5.27;;;3.60;;
13311;SDS011;34033;48.672;9.376;2023-06-14T05:46:02;7.03;;;3.77;;
13311;SDS011;34033;48.672;9.376;2023-06-14T05:48:28;6.77;;;3.90;;
13311;SDS011;34033;48.672;9.376;2023-06-14T05:50:53;8.00;;;3.90;;
13311;SDS011;34033;48.672;9.376;2023-06-14T05:53:19;8.27;;;4.00;;
13311;SDS011;34033;48.672;9.376;2023-06-14T05:55:44;9.37;;;4.13;;
13311;SDS011;34033;48.672;9.376;2023-06-14T05:58:09;14.60;;;4.30;;
13311;SDS011;34033;48.672;9.376;2023-06-14T06:00:35;10.50;;;5.07;;
13311;SDS011;34033;48.672;9.376;2023-06-14T06:03:01;8.20;;;3.70;;
13311;SDS011;34033;48.672;9.376;2023-06-14T06:05:26;8.83;;;4.37;;
13311;SDS011;34033;48.672;9.376;2023-06-14T06:07:51;4.97;;;4.17;;
13311;SDS011;34033;48.672;9.376;2023-06-14T06:10:17;4.07;;;3.27;;
13311;SDS011;34033;48.672;9.376;2023-06-14T06:12:42;6.63;;;3.33;;
13311;SDS011;34033;48.672;9.376;2023-06-14T06:15:08;3.83;;;3.27;;
13311;SDS011;34033;48.672;9.376;2023-06-14T06:17:37;5.33;;;3.47;;
13311;SDS011;34033;48.672;9.376;2023-06-14T06:20:02;4.13;;;3.60;;
13311;SDS011;34033;48.672;9.376;2023-06-14T06:22:30;5.93;;;3.90;;
13311;SDS011;34033;48.672;9.376;2023-06-14T06:24:55;4.80;;;3.47;;
13311;SDS011;34033;48.672;9.376;2023-06-14T06:27:21;4.77;;;3.07;;
13311;SDS011;34033;48.672;9.376;2023-06-14T06:29:46;5.20;;;3.50;;
13311;SDS011;34033;48.672;9.376;2023-06-14T06:32:13;7.97;;;3.50;;
13311;SDS011;34033;48.672;9.376;2023-06-14T06:34:39;3.90;;;3.50;;
13311;SDS011;34033;48.672;9.376;2023-06-14T06:37:04;4.03;;;3.73;;
13311;SDS011;34033;48.672;9.376;2023-06-14T06:39:31;6.20;;;3.30;;
13311;SDS011;34033;48.672;9.376;2023-06-14T06:41:56;3.20;;;2.90;;
13311;SDS011;34033;48.672;9.376;2023-06-14T06:44:21;5.87;;;3.50;;
13311;SDS011;34033;48.672;9.376;2023-06-14T06:46:47;3.60;;;3.30;;
13311;SDS011;34033;48.672;9.376;2023-06-14T06:49:12;3.90;;;3.50;;
13311;SDS011;34033;48.672;9.376;2023-06-14T06:51:40;4.43;;;3.60;;
13311;SDS011;34033;48.672;9.376;2023-06-14T06:54:07;4.43;;;3.37;;
13311;SDS011;34033;48.672;9.376;2023-06-14T06:56:33;3.40;;;3.10;;
13311;SDS011;34033;48.672;9.376;2023-06-14T06:58:58;5.27;;;3.27;;
13311;SDS011;34033;48.672;9.376;2023-06-14T07:01:24;2.90;;;2.70;;
13311;SDS011;34033;48.672;9.376;2023-06-14T07:03:49;6.43;;;3.70;;
13311;SDS011;34033;48.672;9.376;2023-06-14T07:06:15;5.17;;;3.03;;
13311;SDS011;34033;48.672;9.376;2023-06-14T07:08:43;6.20;;;3.50;;
13311;SDS011;34033;48.672;9.376;2023-06-14T07:11:09;3.17;;;2.87;;
13311;SDS011;34033;48.672;9.376;2023-06-14T07:13:34;5.37;;;3.57;;
13311;SDS011;34033;48.672;9.376;2023-06-14T07:16:00;3.33;;;3.03;;
13311;SDS011;34033;48.672;9.376;2023-06-14T07:18:26;3.40;;;3.10;;
13311;SDS011;34033;48.672;9.376;2023-06-14T07:20:52;5.73;;;2.70;;
13311;SDS011;34033;48.672;9.376;2023-06-14T07:23:19;3.00;;;2.70;;
13311;SDS011;34033;48.672;9.376;2023-06-14T07:25:45;4.30;;;3.00;;
13311;SDS011;34033;48.672;9.376;2023-06-14T07:28:10;5.60;;;2.67;;
13311;SDS011;34033;48.672;9.376;2023-06-14T07:30:35;3.00;;;2.70;;
13311;SDS011;34033;48.672;9.376;2023-06-14T07:33:01;3.40;;;3.10;;
13311;SDS011;34033;48.672;9.376;2023-06-14T07:35:26;3.97;;;3.00;;
13311;SDS011;34033;48.672;9.376;2023-06-14T07:37:51;2.90;;;2.70;;
13311;SDS011;34033;48.672;9.376;2023-06-14T07:40:17;2.77;;;2.57;;
13311;SDS011;34033;48.672;9.376;2023-06-14T07:42:43;3.03;;;2.83;;
13311;SDS011;34033;48.672;9.376;2023-06-14T07:45:08;3.17;;;2.70;;
13311;SDS011;34033;48.672;9.376;2023-06-14T07:47:34;2.80;;;2.60;;
13311;SDS011;34033;48.672;9.376;2023-06-14T07:49:59;3.13;;;2.80;;
13311;SDS011;34033;48.672;9.376;2023-06-14T07:52:24;3.90;;;3.03;;
13311;SDS011;34033;48.672;9.376;2023-06-14T07:54:50;2.80;;;2.60;;
13311;SDS011;34033;48.672;9.376;2023-06-14T07:57:15;2.77;;;2.57;;
13311;SDS011;34033;48.672;9.376;2023-06-14T07:59:41;2.77;;;2.57;;
13311;SDS011;34033;48.672;9.376;2023-06-14T08:02:06;5.30;;;2.67;;
13311;SDS011;34033;48.672;9.376;2023-06-14T08:04:32;3.33;;;2.80;;
13311;SDS011;34033;48.672;9.376;2023-06-14T08:06:58;3.23;;;2.90;;
13311;SDS011;34033;48.672;9.376;2023-06-14T08:09:24;3.17;;;2.73;;
13311;SDS011;34033;48.672;9.376;2023-06-14T08:11:50;3.00;;;2.70;;
13311;SDS011;34033;48.672;9.376;2023-06-14T08:14:16;3.37;;;3.07;;
13311;SDS011;34033;48.672;9.376;2023-06-14T08:16:41;2.90;;;2.70;;
13311;SDS011;34033;48.672;9.376;2023-06-14T08:19:06;2.57;;;2.37;;
13311;SDS011;34033;48.672;9.376;2023-06-14T08:21:32;2.40;;;2.20;;
13311;SDS011;34033;48.672;9.376;2023-06-14T08:23:58;3.80;;;3.00;;
13311;SDS011;34033;48.672;9.376;2023-06-14T08:26:24;3.53;;;2.87;;
13311;SDS011;34033;48.672;9.376;2023-06-14T08:28:54;3.17;;;2.93;;
13311;SDS011;34033;48.672;9.376;2023-06-14T08:31:20;2.73;;;2.50;;
13311;SDS011;34033;48.672;9.376;2023-06-14T08:33:45;2.70;;;2.50;;
13311;SDS011;34033;48.672;9.376;2023-06-14T08:36:11;3.23;;;2.93;;
13311;SDS011;34033;48.672;9.376;2023-06-14T08:38:37;2.70;;;2.50;;
13311;SDS011;34033;48.672;9.376;2023-06-14T08:41:02;2.77;;;2.57;;
13311;SDS011;34033;48.672;9.376;2023-06-14T08:43:31;2.70;;;2.50;;
13311;SDS011;34033;48.672;9.376;2023-06-14T08:46:00;5.83;;;2.67;;
13311;SDS011;34033;48.672;9.376;2023-06-14T08:48:28;5.13;;;2.90;;
13311;SDS011;34033;48.672;9.376;2023-06-14T08:50:54;2.77;;;2.57;;
13311;SDS011;34033;48.672;9.376;2023-06-14T08:53:26;2.67;;;2.47;;
13311;SDS011;34033;48.672;9.376;2023-06-14T08:55:53;3.97;;;2.50;;
13311;SDS011;34033;48.672;9.376;2023-06-14T08:58:20;2.60;;;2.50;;
13311;SDS011;34033;48.672;9.376;2023-06-14T09:00:49;2.83;;;2.63;;
13311;SDS011;34033;48.672;9.376;2023-06-14T09:03:17;3.57;;;3.10;;
13311;SDS011;34033;48.672;9.376;2023-06-14T09:05:42;2.50;;;2.40;;
13311;SDS011;34033;48.672;9.376;2023-06-14T09:08:08;2.53;;;2.33;;
13311;SDS011;34033;48.672;9.376;2023-06-14T09:10:34;2.23;;;2.13;;
13311;SDS011;34033;48.672;9.376;2023-06-14T09:13:02;3.90;;;2.97;;
13311;SDS011;34033;48.672;9.376;2023-06-14T09:15:28;2.67;;;2.47;;
13311;SDS011;34033;48.672;9.376;2023-06-14T09:17:54;3.33;;;3.13;;
13311;SDS011;34033;48.672;9.376;2023-06-14T09:20:20;4.70;;;2.73;;
13311;SDS011;34033;48.672;9.376;2023-06-14T09:22:48;3.13;;;2.87;;
13311;SDS011;34033;48.672;9.376;2023-06-14T09:25:14;3.43;;;2.50;;
13311;SDS011;34033;48.672;9.376;2023-06-14T09:27:43;2.73;;;2.50;;
13311;SDS011;34033;48.672;9.376;2023-06-14T09:30:08;2.90;;;2.70;;
13311;SDS011;34033;48.672;9.376;2023-06-14T09:32:38;3.63;;;2.50;;
13311;SDS011;34033;48.672;9.376;2023-06-14T09:35:07;3.23;;;2.70;;
13311;SDS011;34033;48.672;9.376;2023-06-14T09:37:34;2.60;;;2.40;;
13311;SDS011;34033;48.672;9.376;2023-06-14T09:40:00;2.90;;;2.23;;
13311;SDS011;34033;48.672;9.376;2023-06-14T09:42:26;2.60;;;2.40;;
13311;SDS011;34033;48.672;9.376;2023-06-14T09:44:53;5.50;;;2.90;;
13311;SDS011;34033;48.672;9.376;2023-06-14T09:47:20;3.00;;;2.77;;
13311;SDS011;34033;48.672;9.376;2023-06-14T09:49:46;3.10;;;2.80;;
13311;SDS011;34033;48.672;9.376;2023-06-14T09:52:16;2.70;;;2.50;;
13311;SDS011;34033;48.672;9.376;2023-06-14T09:54:43;2.80;;;2.60;;
13311;SDS011;34033;48.672;9.376;2023-06-14T09:57:14;2.63;;;2.43;;
13311;SDS011;34033;48.672;9.376;2023-06-14T09:59:44;2.70;;;2.50;;
13311;SDS011;34033;48.672;9.376;2023-06-14T10:05:04;3.20;;;2.90;;
13311;SDS011;34033;48.672;9.376;2023-06-14T10:10:21;2.90;;;2.70;;
13311;SDS011;34033;48.672;9.376;2023-06-14T10:12:46;2.53;;;2.33;;
13311;SDS011;34033;48.672;9.376;2023-06-14T10:15:15;2.97;;;2.77;;
13311;SDS011;34033;48.672;9.376;2023-06-14T10:23:52;2.70;;;2.50;;
13311;SDS011;34033;48.672;9.376;2023-06-14T10:26:21;2.77;;;2.57;;
13311;SDS011;34033;48.672;9.376;2023-06-14T10:29:00;4.63;;;2.60;;
13311;SDS011;34033;48.672;9.376;2023-06-14T10:31:43;4.50;;;2.70;;
13311;SDS011;34033;48.672;9.376;2023-06-14T10:34:10;2.60;;;2.40;;
13311;SDS011;34033;48.672;9.376;2023-06-14T10:36:38;2.53;;;2.40;;
13311;SDS011;34033;48.672;9.376;2023-06-14T10:39:07;2.90;;;2.60;;
13311;SDS011;34033;48.672;9.376;2023-06-14T10:41:36;2.67;;;2.47;;
13311;SDS011;34033;48.672;9.376;2023-06-14T10:46:50;3.23;;;2.40;;
13311;SDS011;34033;48.672;9.376;2023-06-14T10:49:37;2.77;;;2.57;;
13311;SDS011;34033;48.672;9.376;2023-06-14T10:52:13;3.13;;;2.83;;
13311;SDS011;34033;48.672;9.376;2023-06-14T10:54:56;2.40;;;2.30;;
13311;SDS011;34033;48.672;9.376;2023-06-14T10:57:25;2.90;;;2.70;;
13311;SDS011;34033;48.672;9.376;2023-06-14T10:59:51;3.20;;;2.90;;
13311;SDS011;34033;48.672;9.376;2023-06-14T11:02:27;3.00;;;2.80;;
13311;SDS011;34033;48.672;9.376;2023-06-14T11:05:02;2.70;;;2.50;;
13311;SDS011;34033;48.672;9.376;2023-06-14T11:10:41;3.20;;;2.17;;
13311;SDS011;34033;48.672;9.376;2023-06-14T11:13:08;3.27;;;2.73;;
13311;SDS011;34033;48.672;9.376;2023-06-14T11:15:34;2.77;;;2.57;;
13311;SDS011;34033;48.672;9.376;2023-06-14T11:18:04;3.23;;;2.47;;
13311;SDS011;34033;48.672;9.376;2023-06-14T11:20:32;4.43;;;2.73;;
13311;SDS011;34033;48.672;9.376;2023-06-14T11:22:58;3.50;;;2.50;;
13311;SDS011;34033;48.672;9.376;2023-06-14T11:25:24;3.33;;;2.77;;
13311;SDS011;34033;48.672;9.376;2023-06-14T11:27:51;4.33;;;2.60;;
13311;SDS011;34033;48.672;9.376;2023-06-14T11:30:17;3.30;;;2.60;;
13311;SDS011;34033;48.672;9.376;2023-06-14T11:32:46;3.83;;;2.90;;
13311;SDS011;34033;48.672;9.376;2023-06-14T11:35:12;3.20;;;2.83;;
13311;SDS011;34033;48.672;9.376;2023-06-14T11:37:39;2.77;;;2.57;;
13311;SDS011;34033;48.672;9.376;2023-06-14T11:40:06;2.47;;;2.37;;
13311;SDS011;34033;48.672;9.376;2023-06-14T11:42:34;3.77;;;2.70;;
13311;SDS011;34033;48.672;9.376;2023-06-14T11:45:03;3.30;;;2.73;;
13311;SDS011;34033;48.672;9.376;2023-06-14T11:47:32;5.97;;;2.47;;
13311;SDS011;34033;48.672;9.376;2023-06-14T11:49:59;2.63;;;2.53;;
13311;SDS011;34033;48.672;9.376;2023-06-14T11:52:25;3.23;;;2.50;;
13311;SDS011;34033;48.672;9.376;2023-06-14T11:54:50;3.00;;;2.80;;
13311;SDS011;34033;48.672;9.376;2023-06-14T11:57:17;2.87;;;2.67;;
13311;SDS011;34033;48.672;9.376;2023-06-14T11:59:43;3.60;;;2.57;;
13311;SDS011;34033;48.672;9.376;2023-06-14T12:02:09;2.97;;;2.67;;
13311;SDS011;34033;48.672;9.376;2023-06-14T12:04:35;3.30;;;2.80;;
13311;SDS011;34033;48.672;9.376;2023-06-14T12:07:13;3.50;;;2.83;;
13311;SDS011;34033;48.672;9.376;2023-06-14T12:12:24;2.95;;;2.75;;
13311;SDS011;34033;48.672;9.376;2023-06-14T12:14:50;2.33;;;2.22;;
13311;SDS011;34033;48.672;9.376;2023-06-14T12:17:17;4.22;;;2.47;;
13311;SDS011;34033;48.672;9.376;2023-06-14T12:19:43;2.72;;;2.53;;
13311;SDS011;34033;48.672;9.376;2023-06-14T12:22:10;2.67;;;2.47;;
13311;SDS011;34033;48.672;9.376;2023-06-14T12:24:36;2.33;;;2.22;;
13311;SDS011;34033;48.672;9.376;2023-06-14T12:27:02;4.35;;;2.33;;
13311;SDS011;34033;48.672;9.376;2023-06-14T12:29:29;2.80;;;2.60;;
13311;SDS011;34033;48.672;9.376;2023-06-14T12:31:54;2.80;;;2.60;;
13311;SDS011;34033;48.672;9.376;2023-06-14T12:34:22;2.70;;;2.58;;
13311;SDS011;34033;48.672;9.376;2023-06-14T12:36:52;2.87;;;2.67;;
13311;SDS011;34033;48.672;9.376;2023-06-14T12:39:18;2.60;;;2.40;;
13311;SDS011;34033;48.672;9.376;2023-06-14T12:41:44;3.13;;;2.67;;
13311;SDS011;34033;48.672;9.376;2023-06-14T12:44:10;2.67;;;2.47;;
13311;SDS011;34033;48.672;9.376;2023-06-14T12:46:36;2.80;;;2.60;;
13311;SDS011;34033;48.672;9.376;2023-06-14T12:49:02;4.47;;;2.60;;
13311;SDS011;34033;48.672;9.376;2023-06-14T12:51:27;2.57;;;2.37;;
13311;SDS011;34033;48.672;9.376;2023-06-14T12:53:52;2.58;;;2.38;;
13311;SDS011;34033;48.672;9.376;2023-06-14T12:56:18;2.75;;;2.42;;
13311;SDS011;34033;48.672;9.376;2023-06-14T12:58:43;2.50;;;2.30;;
13311;SDS011;34033;48.672;9.376;2023-06-14T13:01:08;2.63;;;2.45;;
13311;SDS011;34033;48.672;9.376;2023-06-14T13:03:34;2.70;;;2.50;;
13311;SDS011;34033;48.672;9.376;2023-06-14T13:06:00;2.72;;;2.40;;
13311;SDS011;34033;48.672;9.376;2023-06-14T13:08:26;2.60;;;2.40;;
13311;SDS011;34033;48.672;9.376;2023-06-14T13:10:52;2.65;;;2.45;;
13311;SDS011;34033;48.672;9.376;2023-06-14T13:13:18;2.67;;;2.50;;
13311;SDS011;34033;48.672;9.376;2023-06-14T13:15:43;2.80;;;2.50;;
13311;SDS011;34033;48.672;9.376;2023-06-14T13:18:10;2.80;;;2.60;;
13311;SDS011;34033;48.672;9.376;2023-06-14T13:20:38;2.85;;;2.65;;
13311;SDS011;34033;48.672;9.376;2023-06-14T13:23:03;4.37;;;2.77;;
13311;SDS011;34033;48.672;9.376;2023-06-14T13:25:30;3.35;;;2.70;;
13311;SDS011;34033;48.672;9.376;2023-06-14T13:27:56;2.63;;;2.40;;
13311;SDS011;34033;48.672;9.376;2023-06-14T13:30:22;2.63;;;2.43;;
13311;SDS011;34033;48.672;9.376;2023-06-14T13:32:47;2.90;;;2.53;;
13311;SDS011;34033;48.672;9.376;2023-06-14T13:35:13;2.50;;;2.40;;
13311;SDS011;34033;48.672;9.376;2023-06-14T13:37:38;2.73;;;2.53;;
13311;SDS011;34033;48.672;9.376;2023-06-14T13:40:04;2.70;;;2.50;;
13311;SDS011;34033;48.672;9.376;2023-06-14T13:42:30;3.15;;;2.85;;
13311;SDS011;34033;48.672;9.376;2023-06-14T13:44:57;3.15;;;2.40;;
13311;SDS011;34033;48.672;9.376;2023-06-14T13:47:23;5.63;;;2.35;;
13311;SDS011;34033;48.672;9.376;2023-06-14T13:49:48;2.40;;;2.30;;
13311;SDS011;34033;48.672;9.376;2023-06-14T13:52:14;2.60;;;2.40;;
13311;SDS011;34033;48.672;9.376;2023-06-14T13:54:39;2.63;;;2.42;;
13311;SDS011;34033;48.672;9.376;2023-06-14T13:57:05;4.20;;;2.90;;
13311;SDS011;34033;48.672;9.376;2023-06-14T13:59:31;2.30;;;2.20;;
13311;SDS011;34033;48.672;9.376;2023-06-14T14:01:56;2.60;;;2.40;;
13311;SDS011;34033;48.672;9.376;2023-06-14T14:04:22;3.80;;;2.40;;
13311;SDS011;34033;48.672;9.376;2023-06-14T14:06:47;2.58;;;2.40;;
13311;SDS011;34033;48.672;9.376;2023-06-14T14:09:13;8.35;;;2.88;;
13311;SDS011;34033;48.672;9.376;2023-06-14T14:11:39;2.60;;;2.40;;
13311;SDS011;34033;48.672;9.376;2023-06-14T14:14:06;2.40;;;2.30;;
13311;SDS011;34033;48.672;9.376;2023-06-14T14:16:31;3.85;;;2.60;;
13311;SDS011;34033;48.672;9.376;2023-06-14T14:18:57;3.83;;;2.47;;
13311;SDS011;34033;48.672;9.376;2023-06-14T14:21:22;3.45;;;2.35;;
13311;SDS011;34033;48.672;9.376;2023-06-14T14:23:48;4.18;;;2.60;;
13311;SDS011;34033;48.672;9.376;2023-06-14T14:26:14;2.50;;;2.33;;
13311;SDS011;34033;48.672;9.376;2023-06-14T14:28:40;2.75;;;2.30;;
13311;SDS011;34033;48.672;9.376;2023-06-14T14:31:05;2.88;;;2.67;;
13311;SDS011;34033;48.672;9.376;2023-06-14T14:33:31;2.72;;;2.50;;
13311;SDS011;34033;48.672;9.376;2023-06-14T14:35:56;2.97;;;2.60;;
13311;SDS011;34033;48.672;9.376;2023-06-14T14:38:21;3.25;;;2.63;;
13311;SDS011;34033;48.672;9.376;2023-06-14T14:40:47;7.90;;;2.70;;
13311;SDS011;34033;48.672;9.376;2023-06-14T14:43:12;2.70;;;2.50;;
13311;SDS011;34033;48.672;9.376;2023-06-14T14:45:38;4.38;;;2.47;;
13311;SDS011;34033;48.672;9.376;2023-06-14T14:48:03;2.60;;;2.40;;
13311;SDS011;34033;48.672;9.376;2023-06-14T14:50:29;3.80;;;2.65;;
13311;SDS011;34033;48.672;9.376;2023-06-14T14:52:54;4.05;;;2.90;;
13311;SDS011;34033;48.672;9.376;2023-06-14T14:55:21;3.10;;;2.80;;
13311;SDS011;34033;48.672;9.376;2023-06-14T14:57:47;2.85;;;2.40;;
13311;SDS011;34033;48.672;9.376;2023-06-14T15:00:15;3.17;;;2.72;;
13311;SDS011;34033;48.672;9.376;2023-06-14T15:02:41;3.40;;;2.60;;
13311;SDS011;34033;48.672;9.376;2023-06-14T15:05:06;2.70;;;2.50;;
13311;SDS011;34033;48.672;9.376;2023-06-14T15:07:32;2.55;;;2.42;;
13311;SDS011;34033;48.672;9.376;2023-06-14T15:10:00;3.53;;;2.90;;
13311;SDS011;34033;48.672;9.376;2023-06-14T15:12:26;2.63;;;2.53;;